sensor_id;sensor_type;location;lat;lon;timestamp;pressure;altitude;pressure_sealevel;temperature;humidity
79150;BME280;68563;45.644;13.782;2023-11-21T00:00:25;100406.63;;;12.83;73.99
79150;BME280;68563;45.644;13.782;2023-11-21T00:02:51;100411.72;;;12.86;73.86
79150;BME280;68563;45.644;13.782;2023-11-21T00:05:16;100406.47;;;12.87;74.22
79150;BME280;68563;45.644;13.782;2023-11-21T00:07:42;100399.72;;;12.82;74.51
79150;BME280;68563;45.644;13.782;2023-11-21T00:10:08;100403.16;;;12.82;74.49
79150;BME280;68563;45.644;13.782;2023-11-21T00:12:35;100398.84;;;12.81;74.54
79150;BME280;68563;45.644;13.782;2023-11-21T00:15:00;100393.63;;;12.83;74.10
79150;BME280;68563;45.644;13.782;2023-11-21T00:17:27;100385.84;;;12.83;74.54
79150;BME280;68563;45.644;13.782;2023-11-21T00:19:52;100386.72;;;12.82;74.32
79150;BME280;68563;45.644;13.782;2023-11-21T00:22:18;100386.72;;;12.82;74.54
79150;BME280;68563;45.644;13.782;2023-11-21T00:24:45;100384.97;;;12.82;74.65
79150;BME280;68563;45.644;13.782;2023-11-21T00:27:10;100383.09;;;12.87;74.51
79150;BME280;68563;45.644;13.782;2023-11-21T00:29:35;100379.81;;;12.81;74.91
79150;BME280;68563;45.644;13.782;2023-11-21T00:32:01;100384.06;;;12.83;74.55
79150;BME280;68563;45.644;13.782;2023-11-21T00:34:27;100386.66;;;12.83;74.40
79150;BME280;68563;45.644;13.782;2023-11-21T00:36:52;100378.03;;;12.83;74.64
79150;BME280;68563;45.644;13.782;2023-11-21T00:39:18;100362.63;;;12.75;74.80
79150;BME280;68563;45.644;13.782;2023-11-21T00:41:43;100365.88;;;12.83;74.77
79150;BME280;68563;45.644;13.782;2023-11-21T00:44:10;100371.06;;;12.83;74.80
79150;BME280;68563;45.644;13.782;2023-11-21T00:46:36;100370.13;;;12.86;74.82
79150;BME280;68563;45.644;13.782;2023-11-21T00:49:02;100375.44;;;12.81;74.82
79150;BME280;68563;45.644;13.782;2023-11-21T00:51:29;100372.84;;;12.81;74.98
79150;BME280;68563;45.644;13.782;2023-11-21T00:53:55;100367.59;;;12.84;74.98
79150;BME280;68563;45.644;13.782;2023-11-21T00:56:20;100365.88;;;12.83;75.05
79150;BME280;68563;45.644;13.782;2023-11-21T00:58:45;100354.78;;;12.76;74.84
79150;BME280;68563;45.644;13.782;2023-11-21T01:01:15;100353.06;;;12.77;74.88
79150;BME280;68563;45.644;13.782;2023-11-21T01:03:40;100351.34;;;12.76;74.92
79150;BME280;68563;45.644;13.782;2023-11-21T01:06:06;100349.56;;;12.78;74.53
79150;BME280;68563;45.644;13.782;2023-11-21T01:08:32;100340.91;;;12.77;74.35
79150;BME280;68563;45.644;13.782;2023-11-21T01:10:57;100337.41;;;12.79;74.43
79150;BME280;68563;45.644;13.782;2023-11-21T01:13:23;100331.38;;;12.78;74.54
79150;BME280;68563;45.644;13.782;2023-11-21T01:15:48;100328.78;;;12.78;74.50
79150;BME280;68563;45.644;13.782;2023-11-21T01:18:13;100327.06;;;12.77;74.87
79150;BME280;68563;45.644;13.782;2023-11-21T01:20:39;100314.16;;;12.74;74.69
79150;BME280;68563;45.644;13.782;2023-11-21T01:23:05;100318.34;;;12.80;74.39
79150;BME280;68563;45.644;13.782;2023-11-21T01:25:30;100312.38;;;12.76;74.74
79150;BME280;68563;45.644;13.782;2023-11-21T01:27:56;100317.44;;;12.81;74.77
79150;BME280;68563;45.644;13.782;2023-11-21T01:30:21;100311.47;;;12.77;74.64
79150;BME280;68563;45.644;13.782;2023-11-21T01:32:47;100309.66;;;12.81;74.56
79150;BME280;68563;45.644;13.782;2023-11-21T01:35:12;100308.00;;;12.78;74.49
79150;BME280;68563;45.644;13.782;2023-11-21T01:37:38;100317.50;;;12.79;74.43
79150;BME280;68563;45.644;13.782;2023-11-21T01:40:04;100315.69;;;12.81;74.93
79150;BME280;68563;45.644;13.782;2023-11-21T01:42:36;100317.41;;;12.82;74.58
79150;BME280;68563;45.644;13.782;2023-11-21T01:45:02;100317.41;;;12.82;74.88
79150;BME280;68563;45.644;13.782;2023-11-21T01:47:32;100311.38;;;12.80;75.14
79150;BME280;68563;45.644;13.782;2023-11-21T01:49:57;100305.28;;;12.81;75.10
79150;BME280;68563;45.644;13.782;2023-11-21T01:52:23;100310.47;;;12.83;75.23
79150;BME280;68563;45.644;13.782;2023-11-21T01:54:49;100300.97;;;12.80;75.18
79150;BME280;68563;45.644;13.782;2023-11-21T01:57:15;100299.31;;;12.77;75.06
79150;BME280;68563;45.644;13.782;2023-11-21T01:59:41;100300.09;;;12.81;75.27
79150;BME280;68563;45.644;13.782;2023-11-21T02:02:08;100299.31;;;12.79;75.11
79150;BME280;68563;45.644;13.782;2023-11-21T02:04:35;100293.97;;;12.84;74.70
79150;BME280;68563;45.644;13.782;2023-11-21T02:07:02;100289.69;;;12.81;74.53
79150;BME280;68563;45.644;13.782;2023-11-21T02:09:31;100282.94;;;12.75;74.50
79150;BME280;68563;45.644;13.782;2023-11-21T02:11:58;100284.69;;;12.75;74.39
79150;BME280;68563;45.644;13.782;2023-11-21T02:14:27;100283.72;;;12.77;74.46
79150;BME280;68563;45.644;13.782;2023-11-21T02:16:56;100284.69;;;12.75;74.50
79150;BME280;68563;45.644;13.782;2023-11-21T02:19:26;100283.84;;;12.74;74.65
79150;BME280;68563;45.644;13.782;2023-11-21T02:21:52;100276.06;;;12.73;74.69
79150;BME280;68563;45.644;13.782;2023-11-21T02:24:19;100274.22;;;12.76;74.46
79150;BME280;68563;45.644;13.782;2023-11-21T02:26:45;100267.31;;;12.77;74.77
79150;BME280;68563;45.644;13.782;2023-11-21T02:29:11;100264.75;;;12.75;74.46
79150;BME280;68563;45.644;13.782;2023-11-21T02:31:38;100257.03;;;12.72;74.78
79150;BME280;68563;45.644;13.782;2023-11-21T02:34:16;100250.97;;;12.73;74.50
79150;BME280;68563;45.644;13.782;2023-11-21T02:36:45;100244.81;;;12.76;73.96
79150;BME280;68563;45.644;13.782;2023-11-21T02:39:12;100235.41;;;12.72;74.42
79150;BME280;68563;45.644;13.782;2023-11-21T02:41:38;100233.66;;;12.72;74.32
79150;BME280;68563;45.644;13.782;2023-11-21T02:44:05;100238.81;;;12.74;74.43
79150;BME280;68563;45.644;13.782;2023-11-21T02:46:31;100218.91;;;12.73;74.75
79150;BME280;68563;45.644;13.782;2023-11-21T02:48:59;100215.41;;;12.75;75.00
79150;BME280;68563;45.644;13.782;2023-11-21T02:51:25;100215.41;;;12.74;75.50
79150;BME280;68563;45.644;13.782;2023-11-21T02:53:50;100217.13;;;12.75;75.77
79150;BME280;68563;45.644;13.782;2023-11-21T02:56:16;100214.47;;;12.76;75.47
79150;BME280;68563;45.644;13.782;2023-11-21T02:58:42;100211.94;;;12.75;75.72
79150;BME280;68563;45.644;13.782;2023-11-21T03:01:09;100209.31;;;12.75;75.47
79150;BME280;68563;45.644;13.782;2023-11-21T03:03:34;100206.72;;;12.75;75.74
79150;BME280;68563;45.644;13.782;2023-11-21T03:06:02;100202.25;;;12.80;75.53
79150;BME280;68563;45.644;13.782;2023-11-21T03:08:28;100199.66;;;12.80;75.79
79150;BME280;68563;45.644;13.782;2023-11-21T03:10:53;100207.41;;;12.82;76.14
79150;BME280;68563;45.644;13.782;2023-11-21T03:13:18;100196.84;;;12.88;76.53
79150;BME280;68563;45.644;13.782;2023-11-21T03:15:44;100201.03;;;12.92;76.23
79150;BME280;68563;45.644;13.782;2023-11-21T03:18:09;100196.06;;;12.84;76.27
79150;BME280;68563;45.644;13.782;2023-11-21T03:20:35;100188.34;;;12.81;76.38
79150;BME280;68563;45.644;13.782;2023-11-21T03:23:01;100197.81;;;12.84;76.41
79150;BME280;68563;45.644;13.782;2023-11-21T03:25:27;100203.94;;;12.83;76.52
79150;BME280;68563;45.644;13.782;2023-11-21T03:27:52;100208.19;;;12.85;76.02
79150;BME280;68563;45.644;13.782;2023-11-21T03:30:18;100201.28;;;12.84;76.46
79150;BME280;68563;45.644;13.782;2023-11-21T03:32:44;100217.75;;;12.83;76.28
79150;BME280;68563;45.644;13.782;2023-11-21T03:35:09;100222.94;;;12.83;75.96
79150;BME280;68563;45.644;13.782;2023-11-21T03:37:35;100210.91;;;12.81;76.38
79150;BME280;68563;45.644;13.782;2023-11-21T03:40:01;100216.91;;;12.83;76.17
79150;BME280;68563;45.644;13.782;2023-11-21T03:42:29;100214.22;;;12.86;76.06
79150;BME280;68563;45.644;13.782;2023-11-21T03:44:54;100214.22;;;12.86;75.33
79150;BME280;68563;45.644;13.782;2023-11-21T03:47:19;100222.00;;;12.86;75.62
79150;BME280;68563;45.644;13.782;2023-11-21T03:49:45;100218.66;;;12.82;75.88
79150;BME280;68563;45.644;13.782;2023-11-21T03:52:10;100221.25;;;12.82;76.13
79150;BME280;68563;45.644;13.782;2023-11-21T03:54:36;100204.84;;;12.80;75.77
79150;BME280;68563;45.644;13.782;2023-11-21T03:57:01;100212.56;;;12.83;76.08
79150;BME280;68563;45.644;13.782;2023-11-21T03:59:27;100203.06;;;12.82;76.66
79150;BME280;68563;45.644;13.782;2023-11-21T04:01:55;100198.63;;;12.86;76.82
79150;BME280;68563;45.644;13.782;2023-11-21T04:04:20;100196.03;;;12.86;76.60
79150;BME280;68563;45.644;13.782;2023-11-21T04:06:45;100183.22;;;12.80;76.43
79150;BME280;68563;45.644;13.782;2023-11-21T04:09:11;100193.41;;;12.86;76.96
79150;BME280;68563;45.644;13.782;2023-11-21T04:11:36;100191.72;;;12.85;77.02
79150;BME280;68563;45.644;13.782;2023-11-21T04:14:01;100195.22;;;12.84;76.64
79150;BME280;68563;45.644;13.782;2023-11-21T04:16:27;100206.47;;;12.84;76.53
79150;BME280;68563;45.644;13.782;2023-11-21T04:18:52;100200.41;;;12.84;76.44
79150;BME280;68563;45.644;13.782;2023-11-21T04:21:18;100214.34;;;12.81;76.28
79150;BME280;68563;45.644;13.782;2023-11-21T04:23:43;100211.66;;;12.84;76.59
79150;BME280;68563;45.644;13.782;2023-11-21T04:26:08;100206.53;;;12.81;76.43
79150;BME280;68563;45.644;13.782;2023-11-21T04:28:34;100198.72;;;12.83;76.37
79150;BME280;68563;45.644;13.782;2023-11-21T04:30:59;100202.22;;;12.82;76.81
79150;BME280;68563;45.644;13.782;2023-11-21T04:33:25;100206.47;;;12.84;76.81
79150;BME280;68563;45.644;13.782;2023-11-21T04:35:50;100201.28;;;12.84;77.03
79150;BME280;68563;45.644;13.782;2023-11-21T04:38:16;100200.41;;;12.84;76.72
79150;BME280;68563;45.644;13.782;2023-11-21T04:40:41;100192.59;;;12.85;76.92
79150;BME280;68563;45.644;13.782;2023-11-21T04:43:07;100190.00;;;12.84;77.38
79150;BME280;68563;45.644;13.782;2023-11-21T04:45:32;100185.41;;;12.93;76.88
79150;BME280;68563;45.644;13.782;2023-11-21T04:47:57;100195.00;;;12.91;77.05
79150;BME280;68563;45.644;13.782;2023-11-21T04:50:23;100189.03;;;12.88;77.26
79150;BME280;68563;45.644;13.782;2023-11-21T04:52:48;100198.50;;;12.90;76.97
79150;BME280;68563;45.644;13.782;2023-11-21T04:55:14;100194.19;;;12.89;77.78
79150;BME280;68563;45.644;13.782;2023-11-21T04:57:40;100197.66;;;12.90;77.84
79150;BME280;68563;45.644;13.782;2023-11-21T05:00:08;100187.28;;;12.88;77.38
79150;BME280;68563;45.644;13.782;2023-11-21T05:02:34;100191.19;;;13.02;76.64
79150;BME280;68563;45.644;13.782;2023-11-21T05:05:00;100186.00;;;13.02;76.72
79150;BME280;68563;45.644;13.782;2023-11-21T05:07:26;100185.91;;;13.05;76.64
79150;BME280;68563;45.644;13.782;2023-11-21T05:09:54;100191.94;;;13.07;76.68
79150;BME280;68563;45.644;13.782;2023-11-21T05:12:21;100191.13;;;13.05;77.15
79150;BME280;68563;45.644;13.782;2023-11-21T05:14:48;100198.16;;;13.01;77.35
79150;BME280;68563;45.644;13.782;2023-11-21T05:17:14;100200.75;;;13.01;77.28
79150;BME280;68563;45.644;13.782;2023-11-21T05:19:39;100197.22;;;13.04;76.94
79150;BME280;68563;45.644;13.782;2023-11-21T05:22:05;100174.16;;;12.93;76.97
79150;BME280;68563;45.644;13.782;2023-11-21T05:24:31;100188.56;;;13.03;76.99
79150;BME280;68563;45.644;13.782;2023-11-21T05:26:56;100187.72;;;13.03;77.18
79150;BME280;68563;45.644;13.782;2023-11-21T05:29:22;100179.06;;;13.02;76.83
79150;BME280;68563;45.644;13.782;2023-11-21T05:31:47;100187.56;;;13.07;77.44
79150;BME280;68563;45.644;13.782;2023-11-21T05:34:13;100191.75;;;13.13;77.09
79150;BME280;68563;45.644;13.782;2023-11-21T05:36:38;100197.91;;;13.09;76.62
79150;BME280;68563;45.644;13.782;2023-11-21T05:39:03;100192.78;;;13.07;77.54
79150;BME280;68563;45.644;13.782;2023-11-21T05:41:29;100204.13;;;13.05;77.54
79150;BME280;68563;45.644;13.782;2023-11-21T05:43:55;100205.81;;;13.06;77.94
79150;BME280;68563;45.644;13.782;2023-11-21T05:46:20;100212.88;;;13.01;77.93
79150;BME280;68563;45.644;13.782;2023-11-21T05:48:46;100201.47;;;13.06;75.76
79150;BME280;68563;45.644;13.782;2023-11-21T05:51:12;100202.91;;;13.17;72.51
79150;BME280;68563;45.644;13.782;2023-11-21T05:53:39;100207.41;;;13.10;72.82
79150;BME280;68563;45.644;13.782;2023-11-21T05:56:04;100200.63;;;13.06;73.24
79150;BME280;68563;45.644;13.782;2023-11-21T05:58:30;100216.09;;;13.09;72.22
79150;BME280;68563;45.644;13.782;2023-11-21T06:00:55;100212.72;;;13.07;72.09
79150;BME280;68563;45.644;13.782;2023-11-21T06:03:22;100197.28;;;13.01;71.37
79150;BME280;68563;45.644;13.782;2023-11-21T06:05:48;100212.81;;;13.04;71.13
79150;BME280;68563;45.644;13.782;2023-11-21T06:08:13;100210.16;;;13.05;71.29
79150;BME280;68563;45.644;13.782;2023-11-21T06:10:42;100202.34;;;13.07;70.58
79150;BME280;68563;45.644;13.782;2023-11-21T06:13:09;100196.25;;;13.06;70.19
79150;BME280;68563;45.644;13.782;2023-11-21T06:15:35;100204.00;;;13.08;69.14
79150;BME280;68563;45.644;13.782;2023-11-21T06:18:01;100197.03;;;13.10;69.42
79150;BME280;68563;45.644;13.782;2023-11-21T06:20:26;100210.91;;;13.09;69.79
79150;BME280;68563;45.644;13.782;2023-11-21T06:22:53;100203.72;;;13.17;66.16
79150;BME280;68563;45.644;13.782;2023-11-21T06:25:19;100199.47;;;13.15;64.00
79150;BME280;68563;45.644;13.782;2023-11-21T06:27:46;100201.06;;;13.19;62.12
79150;BME280;68563;45.644;13.782;2023-11-21T06:30:12;100196.75;;;13.19;61.36
79150;BME280;68563;45.644;13.782;2023-11-21T06:32:39;100209.03;;;13.14;61.90
79150;BME280;68563;45.644;13.782;2023-11-21T06:35:05;100207.03;;;13.22;60.71
79150;BME280;68563;45.644;13.782;2023-11-21T06:37:31;100197.63;;;13.18;60.67
79150;BME280;68563;45.644;13.782;2023-11-21T06:39:58;100198.88;;;13.06;60.84
79150;BME280;68563;45.644;13.782;2023-11-21T06:42:27;100214.25;;;13.14;60.97
79150;BME280;68563;45.644;13.782;2023-11-21T06:44:54;100197.03;;;13.10;60.44
79150;BME280;68563;45.644;13.782;2023-11-21T06:47:22;100227.47;;;13.06;60.32
79150;BME280;68563;45.644;13.782;2023-11-21T06:49:50;100202.50;;;13.01;60.22
79150;BME280;68563;45.644;13.782;2023-11-21T06:52:16;100184.28;;;13.01;60.21
79150;BME280;68563;45.644;13.782;2023-11-21T06:54:41;100211.53;;;13.17;59.91
79150;BME280;68563;45.644;13.782;2023-11-21T06:57:07;100189.16;;;13.12;59.65
79150;BME280;68563;45.644;13.782;2023-11-21T06:59:32;100221.94;;;13.17;59.13
79150;BME280;68563;45.644;13.782;2023-11-21T07:01:58;100189.00;;;13.18;59.21
79150;BME280;68563;45.644;13.782;2023-11-21T07:04:24;100208.22;;;13.12;59.47
79150;BME280;68563;45.644;13.782;2023-11-21T07:06:51;100175.19;;;13.16;59.00
79150;BME280;68563;45.644;13.782;2023-11-21T07:09:16;100186.56;;;13.12;58.83
79150;BME280;68563;45.644;13.782;2023-11-21T07:11:42;100189.13;;;13.13;58.26
79150;BME280;68563;45.644;13.782;2023-11-21T07:14:07;100189.22;;;13.10;58.73
79150;BME280;68563;45.644;13.782;2023-11-21T07:16:36;100199.56;;;13.12;58.50
79150;BME280;68563;45.644;13.782;2023-11-21T07:19:06;100189.22;;;13.10;58.65
79150;BME280;68563;45.644;13.782;2023-11-21T07:21:32;100213.38;;;13.14;58.48
79150;BME280;68563;45.644;13.782;2023-11-21T07:24:02;100186.63;;;13.10;58.36
79150;BME280;68563;45.644;13.782;2023-11-21T07:26:28;100183.00;;;13.16;58.07
79150;BME280;68563;45.644;13.782;2023-11-21T07:28:54;100209.94;;;13.13;57.62
79150;BME280;68563;45.644;13.782;2023-11-21T07:31:19;100231.53;;;13.15;57.49
79150;BME280;68563;45.644;13.782;2023-11-21T07:33:46;100270.63;;;13.12;57.56
79150;BME280;68563;45.644;13.782;2023-11-21T07:36:15;100199.41;;;13.18;56.81
79150;BME280;68563;45.644;13.782;2023-11-21T07:38:42;100183.13;;;13.11;57.13
79150;BME280;68563;45.644;13.782;2023-11-21T07:41:07;100173.53;;;13.13;57.07
79150;BME280;68563;45.644;13.782;2023-11-21T07:43:36;100245.38;;;13.16;57.21
79150;BME280;68563;45.644;13.782;2023-11-21T07:46:02;100275.00;;;13.10;56.96
79150;BME280;68563;45.644;13.782;2023-11-21T07:48:29;100239.19;;;13.20;56.74
79150;BME280;68563;45.644;13.782;2023-11-21T07:50:55;100215.00;;;13.18;56.64
79150;BME280;68563;45.644;13.782;2023-11-21T07:53:20;100222.94;;;13.13;57.14
79150;BME280;68563;45.644;13.782;2023-11-21T07:55:47;100213.50;;;13.11;56.68
79150;BME280;68563;45.644;13.782;2023-11-21T07:58:12;100207.34;;;13.13;56.71
79150;BME280;68563;45.644;13.782;2023-11-21T08:00:38;100210.50;;;13.23;56.29
79150;BME280;68563;45.644;13.782;2023-11-21T08:03:05;100234.03;;;13.18;55.87
79150;BME280;68563;45.644;13.782;2023-11-21T08:05:31;100235.81;;;13.16;56.19
79150;BME280;68563;45.644;13.782;2023-11-21T08:07:56;100245.19;;;13.22;56.03
79150;BME280;68563;45.644;13.782;2023-11-21T08:10:22;100238.41;;;13.18;56.10
79150;BME280;68563;45.644;13.782;2023-11-21T08:12:47;100207.16;;;13.19;56.29
79150;BME280;68563;45.644;13.782;2023-11-21T08:15:14;100220.19;;;13.18;55.76
79150;BME280;68563;45.644;13.782;2023-11-21T08:17:39;100201.84;;;13.22;55.99
79150;BME280;68563;45.644;13.782;2023-11-21T08:20:05;100197.34;;;13.28;55.95
79150;BME280;68563;45.644;13.782;2023-11-21T08:22:33;100207.91;;;13.23;55.93
79150;BME280;68563;45.644;13.782;2023-11-21T08:24:59;100185.53;;;13.17;56.11
79150;BME280;68563;45.644;13.782;2023-11-21T08:27:25;100196.63;;;13.22;56.24
79150;BME280;68563;45.644;13.782;2023-11-21T08:29:50;100259.78;;;13.26;55.89
79150;BME280;68563;45.644;13.782;2023-11-21T08:32:17;100265.94;;;13.23;55.93
79150;BME280;68563;45.644;13.782;2023-11-21T08:34:43;100185.44;;;13.20;56.06
79150;BME280;68563;45.644;13.782;2023-11-21T08:37:09;100195.09;;;13.17;56.12
79150;BME280;68563;45.644;13.782;2023-11-21T08:39:37;100198.53;;;13.17;56.42
79150;BME280;68563;45.644;13.782;2023-11-21T08:42:03;100246.84;;;13.24;56.16
79150;BME280;68563;45.644;13.782;2023-11-21T08:44:28;100252.25;;;13.18;56.51
79150;BME280;68563;45.644;13.782;2023-11-21T08:46:55;100196.81;;;13.18;56.32
79150;BME280;68563;45.644;13.782;2023-11-21T08:49:21;100216.69;;;13.19;56.41
79150;BME280;68563;45.644;13.782;2023-11-21T08:51:46;100231.50;;;13.17;56.33
79150;BME280;68563;45.644;13.782;2023-11-21T08:54:11;100242.78;;;13.16;56.51
79150;BME280;68563;45.644;13.782;2023-11-21T08:56:37;100178.69;;;13.15;56.93
79150;BME280;68563;45.644;13.782;2023-11-21T08:59:02;100222.81;;;13.16;56.78
79150;BME280;68563;45.644;13.782;2023-11-21T09:01:29;100259.19;;;13.18;56.44
79150;BME280;68563;45.644;13.782;2023-11-21T09:03:59;100256.69;;;13.15;56.84
79150;BME280;68563;45.644;13.782;2023-11-21T09:06:24;100181.34;;;13.13;56.94
79150;BME280;68563;45.644;13.782;2023-11-21T09:08:50;100175.34;;;13.11;56.85
79150;BME280;68563;45.644;13.782;2023-11-21T09:11:17;100197.13;;;13.07;56.93
79150;BME280;68563;45.644;13.782;2023-11-21T09:13:42;100173.53;;;13.13;57.07
79150;BME280;68563;45.644;13.782;2023-11-21T09:16:08;100171.13;;;13.07;56.96
79150;BME280;68563;45.644;13.782;2023-11-21T09:18:33;100201.19;;;13.16;56.63
79150;BME280;68563;45.644;13.782;2023-11-21T09:20:59;100264.56;;;13.12;56.76
79150;BME280;68563;45.644;13.782;2023-11-21T09:23:24;100221.13;;;13.15;56.78
79150;BME280;68563;45.644;13.782;2023-11-21T09:25:50;100222.00;;;13.16;57.06
79150;BME280;68563;45.644;13.782;2023-11-21T09:28:17;100187.50;;;13.11;57.26
79150;BME280;68563;45.644;13.782;2023-11-21T09:30:43;100189.34;;;13.07;57.01
79150;BME280;68563;45.644;13.782;2023-11-21T09:33:09;100207.53;;;13.07;57.13
79150;BME280;68563;45.644;13.782;2023-11-21T09:35:37;100274.16;;;13.09;56.71
79150;BME280;68563;45.644;13.782;2023-11-21T09:38:03;100167.59;;;13.09;56.98
79150;BME280;68563;45.644;13.782;2023-11-21T09:40:30;100167.63;;;13.08;56.83
79150;BME280;68563;45.644;13.782;2023-11-21T09:42:57;100203.03;;;13.12;56.67
79150;BME280;68563;45.644;13.782;2023-11-21T09:45:26;100199.53;;;13.13;56.65
79150;BME280;68563;45.644;13.782;2023-11-21T09:47:55;100157.06;;;13.13;56.71
79150;BME280;68563;45.644;13.782;2023-11-21T09:50:21;100257.72;;;13.09;56.85
79150;BME280;68563;45.644;13.782;2023-11-21T09:55:29;100206.47;;;13.13;56.70
79150;BME280;68563;45.644;13.782;2023-11-21T09:57:56;100219.78;;;13.03;56.30
79150;BME280;68563;45.644;13.782;2023-11-21T10:00:22;100207.41;;;13.10;56.50
79150;BME280;68563;45.644;13.782;2023-11-21T10:02:49;100196.47;;;13.00;56.62
79150;BME280;68563;45.644;13.782;2023-11-21T10:05:15;100150.50;;;13.01;56.74
79150;BME280;68563;45.644;13.782;2023-11-21T10:07:43;100170.38;;;13.03;56.97
79150;BME280;68563;45.644;13.782;2023-11-21T10:10:10;100165.06;;;13.06;56.93
79150;BME280;68563;45.644;13.782;2023-11-21T10:12:36;100169.50;;;13.03;56.66
79150;BME280;68563;45.644;13.782;2023-11-21T10:15:03;100175.72;;;12.99;56.62
79150;BME280;68563;45.644;13.782;2023-11-21T10:17:32;100186.91;;;13.01;56.57
79150;BME280;68563;45.644;13.782;2023-11-21T10:20:05;100189.56;;;12.99;56.10
79150;BME280;68563;45.644;13.782;2023-11-21T10:22:38;100156.72;;;12.97;55.43
79150;BME280;68563;45.644;13.782;2023-11-21T10:25:06;100193.03;;;13.00;55.59
79150;BME280;68563;45.644;13.782;2023-11-21T10:27:33;100144.38;;;13.03;55.60
79150;BME280;68563;45.644;13.782;2023-11-21T10:30:01;100201.66;;;13.00;55.18
79150;BME280;68563;45.644;13.782;2023-11-21T10:32:28;100201.72;;;12.99;55.44
79150;BME280;68563;45.644;13.782;2023-11-21T10:34:57;100209.44;;;13.00;55.27
79150;BME280;68563;45.644;13.782;2023-11-21T10:37:23;100216.25;;;13.04;54.70
79150;BME280;68563;45.644;13.782;2023-11-21T10:39:48;100253.44;;;13.06;54.78
79150;BME280;68563;45.644;13.782;2023-11-21T10:42:18;100182.47;;;13.04;54.62
79150;BME280;68563;45.644;13.782;2023-11-21T10:44:45;100164.25;;;13.04;53.98
79150;BME280;68563;45.644;13.782;2023-11-21T10:47:11;100161.22;;;12.91;54.34
79150;BME280;68563;45.644;13.782;2023-11-21T10:49:37;100142.00;;;12.96;54.73
79150;BME280;68563;45.644;13.782;2023-11-21T10:52:03;100197.69;;;12.88;54.28
79150;BME280;68563;45.644;13.782;2023-11-21T10:54:30;100175.81;;;12.96;54.34
79150;BME280;68563;45.644;13.782;2023-11-21T10:56:59;100191.34;;;12.97;54.11
79150;BME280;68563;45.644;13.782;2023-11-21T10:59:30;100168.13;;;12.92;54.16
79150;BME280;68563;45.644;13.782;2023-11-21T11:01:57;100253.81;;;12.94;54.05
79150;BME280;68563;45.644;13.782;2023-11-21T11:04:25;100168.13;;;12.92;54.26
79150;BME280;68563;45.644;13.782;2023-11-21T11:06:57;100157.78;;;12.89;54.19
79150;BME280;68563;45.644;13.782;2023-11-21T11:09:27;100154.38;;;12.87;53.64
79150;BME280;68563;45.644;13.782;2023-11-21T11:11:52;100156.97;;;12.89;53.24
79150;BME280;68563;45.644;13.782;2023-11-21T11:14:19;100220.28;;;12.86;53.22
79150;BME280;68563;45.644;13.782;2023-11-21T11:16:45;100125.81;;;12.87;53.18
79150;BME280;68563;45.644;13.782;2023-11-21T11:19:11;100145.00;;;12.83;53.34
79150;BME280;68563;45.644;13.782;2023-11-21T11:26:58;100173.38;;;12.89;52.76
79150;BME280;68563;45.644;13.782;2023-11-21T11:37:49;100157.91;;;12.86;52.86
79150;BME280;68563;45.644;13.782;2023-11-21T11:40:14;100124.16;;;12.85;52.83
79150;BME280;68563;45.644;13.782;2023-11-21T11:42:57;100148.44;;;12.84;52.94
79150;BME280;68563;45.644;13.782;2023-11-21T11:45:32;100143.91;;;12.90;52.38
79150;BME280;68563;45.644;13.782;2023-11-21T11:48:00;100105.22;;;12.81;52.81
79150;BME280;68563;45.644;13.782;2023-11-21T11:50:25;100098.16;;;12.85;52.53
79150;BME280;68563;45.644;13.782;2023-11-21T11:52:55;100105.25;;;12.80;52.50
79150;BME280;68563;45.644;13.782;2023-11-21T11:55:36;100085.44;;;12.77;52.27
79150;BME280;68563;45.644;13.782;2023-11-21T11:58:05;100100.13;;;12.78;52.51
79150;BME280;68563;45.644;13.782;2023-11-21T12:00:35;100164.13;;;12.81;52.43
79150;BME280;68563;45.644;13.782;2023-11-21T12:03:03;100083.38;;;12.87;51.88
79150;BME280;68563;45.644;13.782;2023-11-21T12:05:31;100069.44;;;12.89;52.02
79150;BME280;68563;45.644;13.782;2023-11-21T12:08:07;100090.16;;;12.92;51.49
79150;BME280;68563;45.644;13.782;2023-11-21T12:10:34;100087.03;;;12.81;51.81
79150;BME280;68563;45.644;13.782;2023-11-21T12:13:06;100080.22;;;12.77;51.95
79150;BME280;68563;45.644;13.782;2023-11-21T12:15:33;100064.50;;;12.82;51.76
79150;BME280;68563;45.644;13.782;2023-11-21T12:17:59;100075.03;;;12.77;51.95
79150;BME280;68563;45.644;13.782;2023-11-21T12:20:26;100084.56;;;12.76;51.24
79150;BME280;68563;45.644;13.782;2023-11-21T12:22:56;100049.06;;;12.77;51.85
79150;BME280;68563;45.644;13.782;2023-11-21T12:25:26;100059.34;;;12.80;51.86
79150;BME280;68563;45.644;13.782;2023-11-21T12:27:55;100056.72;;;12.80;51.71
79150;BME280;68563;45.644;13.782;2023-11-21T12:30:22;100085.50;;;12.74;51.45
79150;BME280;68563;45.644;13.782;2023-11-21T12:32:52;100137.34;;;12.79;51.24
79150;BME280;68563;45.644;13.782;2023-11-21T12:35:20;100091.44;;;12.79;51.08
79150;BME280;68563;45.644;13.782;2023-11-21T12:37:47;100088.03;;;12.77;51.10
79150;BME280;68563;45.644;13.782;2023-11-21T12:40:13;100075.88;;;12.77;50.84
79150;BME280;68563;45.644;13.782;2023-11-21T12:42:46;100040.38;;;12.76;50.94
79150;BME280;68563;45.644;13.782;2023-11-21T12:48:04;100074.41;;;12.69;51.21
79150;BME280;68563;45.644;13.782;2023-11-21T12:50:34;100088.09;;;12.75;50.91
79150;BME280;68563;45.644;13.782;2023-11-21T12:53:10;100054.44;;;12.71;51.05
79150;BME280;68563;45.644;13.782;2023-11-21T12:55:38;100147.97;;;12.71;51.27